createdAt,value
2022-08-23T00:01:21.126Z,6.43
2022-08-23T00:03:49.962Z,4.13
2022-08-23T00:06:18.511Z,4.75
2022-08-23T00:08:48.247Z,4.65
2022-08-23T00:11:27.684Z,5.32
2022-08-23T00:13:58.108Z,3.33
2022-08-23T05:02:48.427Z,4.77
2022-08-23T05:05:17.743Z,6.67
2022-08-23T05:07:45.710Z,5.20
2022-08-23T05:10:17.100Z,7.80
2022-08-23T05:12:44.825Z,5.20
2022-08-23T05:15:13.702Z,5.43
2022-08-23T05:17:42.930Z,7.57
2022-08-23T05:20:11.364Z,10.37
2022-08-23T05:22:54.988Z,5.67
2022-08-23T05:25:23.498Z,6.23
2022-08-23T05:27:51.230Z,8.70
2022-08-23T05:30:29.713Z,4.97
2022-08-23T05:33:07.096Z,5.70
2022-08-23T05:35:35.383Z,8.50
2022-08-23T05:38:04.489Z,5.90
2022-08-23T05:43:51.561Z,6.63
2022-08-23T05:46:22.088Z,7.67
2022-08-23T05:49:00.699Z,7.70
2022-08-23T05:51:32.814Z,6.47
2022-08-23T05:54:02.673Z,8.03
2022-08-23T05:56:36.485Z,7.93
2022-08-23T05:59:16.294Z,8.87
2022-08-23T06:01:52.593Z,7.10
2022-08-23T06:04:22.032Z,9.20
2022-08-23T06:06:50.824Z,8.10
2022-08-23T06:09:20.603Z,6.57
2022-08-23T06:12:09.904Z,6.53
2022-08-23T06:14:53.206Z,8.13
2022-08-23T06:17:25.840Z,9.30
2022-08-23T06:19:58.766Z,6.57
2022-08-23T06:22:30.808Z,5.20
2022-08-23T06:25:09.880Z,5.73
2022-08-23T06:28:00.255Z,5.47
2022-08-23T06:30:39.574Z,5.53
2022-08-23T06:33:27.769Z,4.43
2022-08-23T06:36:26.650Z,4.00
2022-08-23T06:39:09.746Z,3.63
2022-08-23T06:42:22.183Z,3.87
2022-08-23T06:45:04.339Z,3.53
2022-08-23T06:47:40.515Z,4.07
2022-08-23T06:50:32.896Z,2.10
2022-08-23T06:53:19.616Z,3.03
2022-08-23T06:55:51.443Z,3.03
2022-08-23T06:58:36.220Z,2.42
2022-08-23T07:04:44.667Z,3.92
2022-08-23T07:07:41.423Z,1.93
2022-08-23T07:10:33.431Z,3.35
2022-08-23T07:13:01.792Z,2.25
2022-08-23T07:15:30.614Z,3.87
2022-08-23T07:18:01.230Z,3.93
2022-08-23T07:20:31.778Z,2.95
2022-08-23T07:23:02.054Z,4.87
2022-08-23T07:25:32.483Z,2.30
2022-08-23T07:28:01.727Z,3.25
2022-08-23T07:30:31.127Z,5.72
2022-08-23T07:33:00.630Z,5.63
2022-08-23T07:35:35.658Z,3.25
2022-08-23T07:38:10.511Z,1.70
2022-08-23T07:40:42.548Z,3.53
2022-08-23T07:43:11.453Z,2.35
2022-08-23T07:45:46.414Z,4.68
2022-08-23T07:48:50.237Z,3.38
2022-08-23T07:51:19.822Z,4.18
2022-08-23T07:53:53.210Z,1.75
2022-08-23T07:56:26.011Z,3.33
2022-08-23T07:58:53.731Z,2.22
2022-08-23T08:01:31.051Z,5.00
2022-08-23T08:04:11.273Z,5.15
2022-08-23T08:07:10.380Z,3.00
2022-08-23T08:09:41.459Z,1.98
2022-08-23T08:12:11.782Z,3.28
2022-08-23T08:14:42.839Z,1.75
2022-08-23T08:17:11.614Z,3.25
2022-08-23T08:19:42.365Z,3.47
2022-08-23T08:22:13.088Z,1.67
2022-08-23T08:24:41.523Z,2.80
2022-08-23T08:27:38.201Z,1.85
2022-08-23T08:30:16.336Z,2.42
2022-08-23T08:32:49.931Z,2.28
2022-08-23T08:35:22.642Z,1.83
2022-08-23T08:37:51.514Z,1.55
2022-08-23T08:40:32.831Z,2.55
2022-08-23T08:43:20.787Z,2.63
2022-08-23T08:46:00.710Z,2.28
2022-08-23T08:48:40.418Z,1.40
2022-08-23T08:51:31.272Z,1.75
2022-08-23T08:54:10.688Z,1.80
2022-08-23T08:56:51.645Z,3.80
2022-08-23T08:59:30.905Z,2.20
2022-08-23T09:02:02.695Z,2.40
2022-08-23T09:04:31.708Z,2.30
2022-08-23T09:07:13.129Z,1.20
2022-08-23T09:10:10.656Z,1.73
2022-08-23T09:12:53.338Z,2.15
2022-08-23T09:15:40.144Z,1.85
2022-08-23T09:18:19.772Z,2.05
2022-08-23T09:20:53.288Z,1.33
2022-08-23T09:23:29.127Z,1.40
2022-08-23T09:26:09.035Z,1.77
2022-08-23T09:28:43.207Z,2.83
2022-08-23T09:31:13.121Z,1.35
2022-08-23T09:33:50.073Z,2.58
2022-08-23T09:36:28.156Z,4.00
2022-08-23T09:39:11.431Z,1.17
2022-08-23T09:41:43.688Z,1.50
2022-08-23T09:44:18.564Z,1.45
2022-08-23T09:46:52.075Z,1.83
2022-08-23T09:49:33.321Z,2.42
2022-08-23T09:52:12.840Z,3.67
2022-08-23T09:55:03.049Z,2.55
2022-08-23T09:57:37.648Z,1.92
2022-08-23T10:00:30.971Z,2.72
2022-08-23T10:03:22.362Z,2.35
2022-08-23T10:05:53.016Z,4.95
2022-08-23T10:08:32.786Z,4.25
2022-08-23T10:11:10.563Z,2.80
2022-08-23T10:13:47.880Z,3.88
2022-08-23T10:16:32.510Z,3.50
2022-08-23T10:19:11.091Z,2.83
2022-08-23T10:21:42.907Z,3.10
2022-08-23T10:24:29.740Z,2.63
2022-08-23T10:27:51.325Z,2.97
2022-08-23T10:30:28.843Z,4.60
2022-08-23T10:33:09.347Z,2.25
2022-08-23T10:35:50.454Z,3.05
2022-08-23T10:38:43.380Z,4.82
2022-08-23T10:41:37.830Z,3.10
2022-08-23T10:44:29.167Z,2.03
2022-08-23T10:47:11.614Z,2.15
2022-08-23T10:49:44.461Z,3.22
2022-08-23T10:52:25.826Z,2.92
2022-08-23T10:55:19.535Z,1.73
2022-08-23T10:57:55.542Z,3.63
2022-08-23T11:00:32.207Z,5.03
2022-08-23T11:03:20.292Z,1.92
2022-08-23T11:06:21.980Z,3.05
2022-08-23T11:09:11.218Z,2.05
2022-08-23T11:11:51.181Z,3.03
2022-08-23T11:14:41.720Z,2.78
2022-08-23T11:17:13.368Z,4.47
2022-08-23T11:20:30.485Z,4.78
2022-08-23T11:23:40.638Z,2.97
2022-08-23T11:26:40.096Z,2.90
2022-08-23T11:29:33.050Z,2.92
2022-08-23T11:32:31.411Z,4.00
2022-08-23T11:35:10.120Z,4.78
2022-08-23T11:38:04.208Z,4.13
2022-08-23T11:41:31.467Z,5.05
2022-08-23T11:44:31.131Z,7.20
2022-08-23T11:47:11.334Z,5.97
2022-08-23T11:50:21.429Z,3.70
2022-08-23T11:53:21.088Z,6.72
2022-08-23T11:56:26.659Z,3.88
2022-08-23T11:59:22.380Z,7.03
2022-08-23T12:01:57.510Z,6.32
2022-08-23T12:04:42.329Z,6.55
2022-08-23T12:07:13.532Z,3.70
2022-08-23T12:10:01.778Z,6.20
2022-08-23T12:12:39.373Z,4.50
2022-08-23T12:15:17.030Z,4.93
2022-08-23T12:18:14.187Z,4.18
2022-08-23T12:20:42.524Z,5.78
2022-08-23T12:23:20.010Z,5.93
2022-08-23T12:25:59.721Z,7.70
2022-08-23T12:28:38.119Z,7.60
2022-08-23T12:31:31.219Z,6.28
2022-08-23T12:34:33.744Z,4.88
2022-08-23T12:37:21.479Z,3.38
2022-08-23T12:39:59.210Z,4.70
2022-08-23T12:42:32.238Z,4.68
2022-08-23T12:45:05.794Z,6.57
2022-08-23T12:47:43.074Z,10.25
2022-08-23T12:50:32.595Z,5.70
2022-08-23T12:53:07.203Z,7.53
2022-08-23T12:55:43.072Z,7.22
2022-08-23T12:58:12.522Z,5.55
2022-08-23T13:00:53.291Z,8.15
2022-08-23T13:03:31.353Z,6.57
2022-08-23T13:06:13.837Z,3.78
2022-08-23T13:08:52.496Z,9.52
2022-08-23T13:11:27.100Z,6.97
2022-08-23T13:14:01.192Z,5.07
2022-08-23T13:16:41.851Z,5.55
2022-08-23T13:19:30.212Z,7.38
2022-08-23T13:22:12.966Z,6.55
2022-08-23T13:24:43.606Z,6.30
2022-08-23T13:27:23.078Z,4.82
2022-08-23T13:29:52.730Z,5.25
2022-08-23T13:32:33.686Z,8.20
2022-08-23T13:35:32.152Z,5.22
2022-08-23T13:38:20.600Z,3.45
2022-08-23T13:41:15.167Z,5.80
2022-08-23T13:43:52.209Z,4.75
2022-08-23T13:46:30.298Z,5.97
2022-08-23T13:49:11.466Z,5.03
2022-08-23T13:51:49.328Z,6.57
2022-08-23T13:54:23.650Z,10.00
2022-08-23T13:56:55.826Z,5.68
2022-08-23T13:59:35.683Z,6.22
2022-08-23T14:02:12.254Z,6.07
2022-08-23T14:04:42.726Z,6.32
2022-08-23T14:07:17.674Z,4.55
2022-08-23T14:09:54.829Z,5.93
2022-08-23T14:12:30.325Z,4.22
2022-08-23T14:15:06.410Z,4.70
2022-08-23T14:17:41.254Z,4.28
2022-08-23T14:23:04.845Z,5.13
2022-08-23T14:25:44.064Z,4.72
2022-08-23T14:28:12.018Z,5.40
2022-08-23T14:30:42.056Z,3.92
2022-08-23T14:33:12.700Z,5.78
2022-08-23T14:35:41.991Z,3.78
2022-08-23T14:38:13.389Z,3.50
2022-08-23T14:40:41.095Z,5.60
2022-08-23T14:43:13.594Z,4.75
2022-08-23T14:45:42.043Z,4.20
2022-08-23T14:48:09.771Z,4.05
2022-08-23T14:50:37.480Z,6.78
2022-08-23T14:53:06.635Z,5.78
2022-08-23T14:55:34.274Z,5.78
2022-08-23T14:58:02.561Z,6.43
2022-08-23T15:00:32.244Z,4.88
2022-08-23T15:03:00.303Z,6.13
2022-08-23T15:05:28.017Z,4.55
2022-08-23T15:07:56.746Z,3.78
2022-08-23T15:13:21.607Z,6.38
2022-08-23T15:16:03.222Z,4.85
2022-08-23T15:18:33.053Z,4.03
2022-08-23T15:21:01.995Z,3.78
2022-08-23T15:23:40.641Z,3.30
2022-08-23T15:26:12.714Z,3.13
2022-08-23T15:28:46.151Z,4.05
2022-08-23T15:31:19.010Z,3.95
2022-08-23T15:33:50.735Z,5.85
2022-08-23T15:36:22.073Z,3.67
2022-08-23T15:38:52.191Z,3.03
2022-08-23T15:41:23.066Z,4.60
2022-08-23T15:43:52.425Z,3.15
2022-08-23T15:46:32.235Z,2.45
2022-08-23T15:49:05.531Z,3.42
2022-08-23T15:51:33.332Z,2.65
2022-08-23T15:54:02.865Z,3.92
2022-08-23T15:56:41.828Z,2.88
2022-08-23T15:59:13.727Z,2.72
2022-08-23T16:01:51.614Z,2.17
2022-08-23T16:04:21.943Z,2.60
2022-08-23T16:06:53.055Z,2.22
2022-08-23T16:09:27.916Z,4.38
2022-08-23T16:12:00.374Z,3.47
2022-08-23T16:14:32.475Z,2.67
2022-08-23T16:17:03.736Z,2.05
2022-08-23T16:19:32.752Z,2.08
2022-08-23T16:22:02.007Z,2.17
2022-08-23T16:24:31.850Z,2.50
2022-08-23T16:27:02.044Z,2.17
2022-08-23T16:29:40.282Z,1.60
2022-08-23T16:32:22.511Z,2.67
2022-08-23T16:34:53.211Z,2.40
2022-08-23T16:37:22.313Z,2.28
2022-08-23T16:39:53.395Z,2.30
2022-08-23T16:42:24.557Z,3.65
2022-08-23T16:44:58.028Z,4.53
2022-08-23T16:47:41.235Z,2.05
2022-08-23T16:50:13.695Z,1.98
2022-08-23T16:52:41.534Z,1.77
2022-08-23T16:55:12.220Z,2.17
2022-08-23T16:57:40.580Z,2.22
2022-08-23T17:00:11.410Z,2.00
2022-08-23T17:02:43.954Z,2.97
2022-08-23T17:05:15.968Z,2.03
2022-08-23T17:07:43.786Z,3.30
2022-08-23T17:10:13.202Z,3.10
2022-08-23T17:12:47.091Z,3.58
2022-08-23T17:15:19.785Z,2.70
2022-08-23T17:17:49.800Z,1.70
2022-08-23T17:20:19.986Z,3.70
2022-08-23T17:22:47.867Z,1.60
2022-08-23T17:25:16.769Z,6.38
2022-08-23T17:27:46.379Z,2.13
2022-08-23T17:30:16.732Z,2.70
2022-08-23T17:32:44.391Z,2.22
2022-08-23T17:35:15.131Z,1.48
2022-08-23T17:37:43.512Z,2.63
2022-08-23T17:40:15.008Z,1.67
2022-08-23T17:42:43.142Z,1.83
2022-08-23T17:45:12.141Z,1.65
2022-08-23T17:47:40.200Z,1.38
2022-08-23T17:50:09.240Z,1.65
2022-08-23T17:52:38.994Z,0.80
2022-08-23T17:55:32.750Z,0.90
2022-08-23T17:58:04.964Z,1.23
2022-08-23T18:00:35.004Z,0.60
2022-08-23T18:03:03.929Z,0.75
2022-08-23T18:05:34.128Z,1.20
2022-08-23T18:08:03.376Z,0.77
2022-08-23T18:10:31.051Z,1.23
2022-08-23T18:12:59.382Z,0.55
2022-08-23T18:15:28.697Z,1.15
2022-08-23T18:17:56.425Z,0.43
2022-08-23T18:20:27.510Z,0.70
2022-08-23T18:22:58.259Z,0.85
2022-08-23T18:25:29.289Z,0.90
2022-08-23T18:28:12.327Z,1.42
2022-08-23T18:31:01.256Z,1.60
2022-08-23T18:33:46.279Z,2.85
2022-08-23T18:36:20.768Z,1.15
2022-08-23T18:39:01.081Z,0.75
2022-08-23T18:41:32.427Z,3.08
2022-08-23T18:44:05.349Z,0.80
2022-08-23T18:47:01.402Z,0.88
2022-08-23T18:49:33.508Z,1.58
2022-08-23T18:52:11.066Z,1.95
2022-08-23T18:54:43.596Z,1.58
2022-08-23T18:57:15.804Z,1.00
2022-08-23T18:59:48.121Z,0.70
2022-08-23T19:02:23.519Z,2.42
2022-08-23T19:04:53.227Z,0.70
2022-08-23T19:07:22.637Z,2.10
2022-08-23T19:09:52.372Z,0.85
2022-08-23T19:12:36.759Z,1.17
2022-08-23T19:15:12.925Z,0.60
2022-08-23T19:17:44.600Z,1.05
2022-08-23T19:20:34.178Z,2.58
2022-08-23T19:23:03.175Z,1.30
2022-08-23T19:25:33.937Z,0.95
2022-08-23T19:28:14.574Z,1.35
2022-08-23T19:30:43.937Z,0.68
2022-08-23T19:33:14.471Z,0.60
2022-08-23T19:35:50.170Z,0.55
2022-08-23T19:38:18.888Z,1.95
2022-08-23T19:40:46.598Z,0.73
2022-08-23T19:43:15.553Z,1.98
2022-08-23T19:45:43.344Z,1.00
2022-08-23T19:48:11.218Z,1.35
2022-08-23T19:50:41.051Z,0.95
2022-08-23T19:53:12.176Z,1.33
2022-08-23T19:55:48.599Z,0.80
2022-08-23T19:58:22.940Z,1.77
2022-08-23T20:00:52.956Z,0.65
2022-08-23T20:03:22.747Z,1.90
2022-08-23T20:06:03.225Z,0.60
2022-08-23T20:08:34.051Z,0.80
2022-08-23T20:11:02.695Z,1.42
2022-08-23T20:13:33.993Z,0.65
2022-08-23T20:16:02.929Z,1.17
2022-08-23T20:18:30.596Z,0.82
2022-08-23T20:21:06.497Z,0.90
2022-08-23T20:23:51.588Z,1.17
2022-08-23T20:26:24.469Z,1.10
2022-08-23T20:28:59.761Z,3.00
2022-08-23T20:31:35.371Z,0.70
2022-08-23T20:34:04.879Z,2.10
2022-08-23T20:36:34.466Z,1.25
2022-08-23T20:39:03.222Z,1.60
2022-08-23T20:41:40.013Z,0.95
2022-08-23T20:44:15.275Z,1.10
2022-08-23T20:49:35.136Z,0.82
2022-08-23T20:52:02.864Z,1.35
2022-08-23T20:54:34.233Z,0.77
2022-08-23T20:57:05.419Z,2.08
2022-08-23T20:59:44.959Z,1.58
2022-08-23T21:02:14.265Z,0.65
2022-08-23T21:04:42.961Z,0.60
2022-08-23T21:07:13.524Z,1.55
2022-08-23T21:09:42.835Z,0.90
2022-08-23T21:12:13.541Z,1.98
2022-08-23T21:14:42.918Z,0.63
2022-08-23T21:17:12.579Z,1.85
2022-08-23T21:19:44.215Z,0.68
2022-08-23T21:22:12.767Z,1.77
2022-08-23T21:24:44.922Z,1.27
2022-08-23T21:27:12.809Z,0.90
2022-08-23T21:29:48.140Z,1.00
2022-08-23T21:32:18.675Z,2.35
2022-08-23T21:34:50.349Z,1.55
2022-08-23T21:37:22.779Z,1.23
2022-08-23T21:39:53.011Z,1.90
2022-08-23T21:42:25.017Z,0.90
2022-08-23T21:45:01.671Z,1.35
2022-08-23T21:47:31.576Z,1.65
2022-08-23T21:50:14.934Z,2.75
2022-08-23T21:52:43.002Z,1.88
2022-08-23T21:55:36.063Z,1.58
2022-08-23T21:58:06.347Z,0.65
2022-08-23T22:00:38.032Z,0.80
2022-08-23T22:03:10.619Z,0.90
2022-08-23T22:05:44.179Z,1.08
2022-08-23T22:08:14.641Z,1.58
2022-08-23T22:10:57.142Z,1.60
2022-08-23T22:13:38.053Z,0.93
2022-08-23T22:16:20.563Z,0.90
2022-08-23T22:18:53.772Z,2.33
2022-08-23T22:21:24.377Z,0.80
2022-08-23T22:23:53.397Z,2.03
2022-08-23T22:26:23.345Z,0.85
2022-08-23T22:28:55.533Z,1.33
2022-08-23T22:31:25.260Z,2.60
2022-08-23T22:33:56.948Z,1.55
2022-08-23T22:36:25.259Z,1.50
2022-08-23T22:38:53.451Z,1.73
2022-08-23T22:41:32.694Z,2.42
2022-08-23T22:44:03.418Z,2.38
2022-08-23T22:46:35.776Z,4.05
2022-08-23T22:49:03.955Z,1.38
2022-08-23T22:51:43.943Z,1.35
2022-08-23T22:54:15.699Z,1.30
2022-08-23T22:57:01.555Z,2.60
2022-08-23T22:59:33.273Z,1.20
2022-08-23T23:02:13.035Z,1.20
2022-08-23T23:04:43.655Z,2.75
2022-08-23T23:07:40.587Z,1.17
2022-08-23T23:10:22.752Z,1.95
2022-08-23T23:12:53.177Z,1.50
2022-08-23T23:15:24.441Z,1.77
2022-08-23T23:17:53.725Z,1.98
2022-08-23T23:20:41.721Z,1.73
2022-08-23T23:23:19.934Z,1.38
2022-08-23T23:25:53.001Z,1.58
2022-08-23T23:28:23.582Z,1.42
2022-08-23T23:30:58.970Z,1.95
2022-08-23T23:33:28.449Z,1.52
2022-08-23T23:36:01.046Z,1.40
2022-08-23T23:38:28.742Z,1.27
2022-08-23T23:40:56.425Z,1.63
2022-08-23T23:43:27.963Z,0.80
2022-08-23T23:45:59.181Z,1.27
2022-08-23T23:48:38.004Z,1.52
2022-08-23T23:51:11.779Z,2.03
2022-08-23T23:53:44.806Z,1.10
2022-08-23T23:56:15.162Z,2.03
2022-08-23T23:58:53.023Z,0.93
